My Meet Scores
Ariana Garay, Cartwheels, Etc. - MyMeetScores.com
Top100 | Top Teams | Upcoming Meets | Completed Meets | Latest | Add Scores | Help| Support | Bookmark and Share

Ariana Garay, Cartwheels, Etc.
Personal Bests
LevelVault BarsBeamFloorAA
XG9.1009.325 9.1009.35036.200
XP9.1008.600 9.0009.07534.975
XS9.0008.950 8.7008.20034.850
Meet Scores
Date Meet Team Session Level Division Vault Bars Beam Floor AA
2020-03-07 Holiday Costume Cup 2020 Cartwheels, Etc. 08 XP Older 8.650 9T 7.850 14 8.150 14 9.000 8T 33.650 14
2020-02-28 2020 February Flip Invitational Cartwheels, Etc. 9 XP 15 up 9.100 5T 8.575 6 8.825 3 8.400 8 34.900 8
2020-02-15 Shoreline Twister Invitational Cartwheels, Etc. 1 XP Older 8.950 3 8.600 1 8.350 3 9.075 2 34.975 3
2020-02-09 Flip-Flop Gymnastics Local Meet Cartwheels, Etc. 3 XP Jr/Sr 12+ 8.650 14 8.400 18T 8.025 33 8.225 34 33.300 25
2020-01-24 2020 Kinetic Kids Invitational Cartwheels, Etc. 8 XP Sr B 9.100 5 8.000 5T 8.850 5 7.900 10 33.850 8
2019-12-14 2019 Holiday Classic at University of Bridgep Cartwheels, Etc. 5 XP SR 8.350 6 7.950 2 8.200 6 8.625 4 33.125 5
2019-04-27 Xcel Gold, Platinum, Diamond State Championsh Cartwheels, Etc. 7 XP Sr C 8.775 54 6.625 52 8.150 54T 8.800 40T 32.350 53
2019-02-22 2019 February Flip Invitational Cartwheels, Etc. 7 XP 15 up 8.700 8 7.900 7 9.000 3T 8.350 9T 33.950 7
2019-01-25 Kinetic Kids Invitational 2019 Cartwheels, Etc. 4 XP Sr A 8.250 9 8.000 6T 8.850 6 8.725 7 33.825 6
2019-01-11 New Year's Invitational Cartwheels, Etc. 4 XP Sr B 8.500 9 8.350 8 8.750 5 8.650 8 34.250 8
2018-04-21 2018 Connecticut XG, XP, XD State Championships Cartwheels, Etc. 4 XG Sr. E 8.300 54 9.325 11 8.550 38 9.300 9T 35.475 28
2018-03-01 Holiday Costume Cup 2018 Cartwheels, Etc. 10 XG Sr B 8.550 4T 8.600 5T 8.750 7T 9.000 2 34.900 5
2018-01-19 Kinetic Kids Invitational Cartwheels, Etc. 6 XG Sr B 8.700 2 9.275 1 7.000 9 9.025 3 34.000 4
2018-01-12 DGS Invitational Cartwheels, Etc. 7A XG 14 yrs. 8.650 8 9.025 4T 8.050 9 9.325 1 35.050 4T
2017-12-15 Reindeer Games 2017 Cartwheels, Etc. 2 XG Senior 8.800 8T 9.000 2T 8.850 7 9.200 1T 35.850 2
2017-04-29 Xcel Gold, Platinum, Diamond State Championships Cartwheels, Etc. 3 XG Sr. A 8.475 15 8.600 9 9.050 6 9.200 2T 35.325 6
2017-03-05 TNT Gymnastics Cartwheels, Etc. 2 XG Sr A 8.700 27T 9.250 5T 8.200 46T 9.350 4T 35.500 26T
2017-01-13 Northeast Invitational Cartwheels, Etc. 8 XG 13 yrs. 9.000 2 9.125 6 9.100 2 8.975 4 36.200 2
2016-04-23 2016 Connecticut XG, XP, XD State Meet Cartwheels, Etc. 1 XG Jr.C 8.900 8 8.400 14T 8.200 15 8.925 10 34.425 11
2016-01-28 2016 American Invitational Cartwheels, Etc. 9A XG Junior 8.100 10 8.650 12 8.600 10 8.925 10 34.275 14
2016-01-15 DGS Invitational Cartwheels, Etc. B4 XG 12 yrs. 9.100 7T 8.500 15 8.650 8 8.600 14 34.850 11
2015-03-05 Holiday Costume Cup 2015 Cartwheels, Etc. 9 XS Sr A 9.000 3 8.950 12 8.700 14 8.200 13 34.850 12
Get your scores on
a t-shirt, pin, or hoodie

www.lazysuits.com